Ever Develop — 3FLF8 — position and weather

sailwx.info

Track history (hours):
 
Tides and Currents Weather Stations Pressure Air Temp Water Temp Dewpoint Dewpoint Depression Visibility Wind Speed Wind Dir Waves Ship Positions

Ever Develop

Last reported at 2014-Nov-26 12:33 UTC. Time now 2014-Nov-26 12:48 UTC.
Position N 36°20' W 122°54'.

Type: Ship (hazmat cat D). MMSI: 356391000.

Date/timePositionNaut miles runAvg speedWind from/ knotsBaromVisibWave heightAir tempDewpointWater temp
2014-Nov-26 12:33N 36°20' W 122°54'0 0.4
2014-Nov-26 11:33N 36°20' W 122°55'0 0.3
2014-Nov-26 10:33N 36°20' W 122°55'0 0.0
2014-Nov-26 09:33N 36°20' W 122°55'0 0.3
2014-Nov-26 08:33N 36°20' W 122°55'0 0.5
2014-Nov-26 07:33N 36°20' W 122°55'1 0.7
2014-Nov-26 06:28N 36°21' W 122°55'1 0.9
2014-Nov-26 05:33N 36°22' W 122°55'1 0.6
2014-Nov-26 04:33N 36°22' W 122°56'7 6.9
2014-Nov-26 03:33N 36°19' W 122°48'1413.5
2014-Nov-26 02:33N 36°09' W 122°37'1413.6
2014-Nov-26 01:33N 35°60' W 122°25'1313.4
2014-Nov-26 00:33N 35°50' W 122°13'1313.1
2014-Nov-25 23:33N 35°39' W 122°05'1413.6
2014-Nov-25 22:33N 35°27' W 121°57'1413.6
2014-Nov-25 21:33N 35°15' W 121°50'1413.7
2014-Nov-25 20:33N 35°02' W 121°42'1413.7
2014-Nov-25 19:33N 34°50' W 121°34'1413.6
2014-Nov-25 18:33N 34°38' W 121°26'1413.7
2014-Nov-25 17:33N 34°26' W 121°19'1413.6
2014-Nov-25 16:30N 34°13' W 121°11'1313.8
2014-Nov-25 15:33N 34°02' W 121°04'1413.8
2014-Nov-25 14:33N 33°49' W 120°56'3113.5
2014-Nov-25 12:17N 33°29' W 120°28'1014.1
2014-Nov-25 11:34N 33°31' W 120°16'1514.4
2014-Nov-25 10:33N 33°34' W 119°59'1514.4
2014-Nov-25 09:30N 33°36' W 119°42'2814.4
2014-Nov-25 07:32N 33°42' W 119°08'1111.7
2014-Nov-25 06:33N 33°41' W 118°54'9 9.2
2014-Nov-25 05:33N 33°41' W 118°43'9 9.5
2014-Nov-25 04:33N 33°39' W 118°32'1211.7
2014-Nov-25 03:33N 33°38' W 118°18'7 6.7
2014-Nov-25 02:33N 33°45' W 118°16'0 0.0
2014-Nov-25 00:22N 33°45' W 118°16'0 0.0
2014-Nov-24 23:28N 33°45' W 118°16'0 0.0
2014-Nov-24 22:31N 33°45' W 118°16'0 0.0
2014-Nov-24 21:31N 33°45' W 118°16'0 0.0
2014-Nov-24 20:28N 33°45' W 118°16'0 0.0
2014-Nov-24 19:31N 33°45' W 118°16'0 0.0
2014-Nov-24 18:31N 33°45' W 118°16'0 0.0
2014-Nov-24 17:31N 33°45' W 118°16'0 0.0
2014-Nov-24 16:31N 33°45' W 118°16'0 0.0
2014-Nov-24 15:28N 33°45' W 118°16'0 0.0
2014-Nov-24 14:31N 33°45' W 118°16'0 0.0
2014-Nov-24 13:33N 33°45' W 118°16'4 3.9
2014-Nov-24 12:33N 33°41' W 118°14'3 3.4
2014-Nov-24 11:33N 33°39' W 118°11'3 3.0
2014-Nov-24 10:30N 33°41' W 118°09'0 0.2
2014-Nov-24 09:33N 33°41' W 118°09'0 0.1
2014-Nov-24 08:33N 33°41' W 118°09'0 0.1
2014-Nov-24 07:33N 33°41' W 118°09'0 0.1
2014-Nov-24 06:33N 33°41' W 118°09'0 0.0
2014-Nov-24 05:21N 33°41' W 118°09'0 0.1
2014-Nov-24 04:33N 33°41' W 118°09'0 0.0
2014-Nov-24 03:33N 33°41' W 118°09'0 0.1
2014-Nov-24 02:27N 33°41' W 118°09'0 0.0
2014-Nov-24 01:33N 33°41' W 118°09'0 0.0
2014-Nov-24 00:33N 33°41' W 118°09'0 0.0
2014-Nov-23 23:33N 33°41' W 118°09'0 0.0
2014-Nov-23 22:30N 33°41' W 118°09'0 0.0
2014-Nov-23 21:33N 33°41' W 118°09'0 0.1
2014-Nov-23 20:33N 33°41' W 118°09'0 0.0
2014-Nov-23 19:33N 33°41' W 118°09'0 0.0
2014-Nov-23 18:33N 33°41' W 118°09'0 0.0
2014-Nov-23 17:33N 33°41' W 118°09'0 0.0
2014-Nov-23 16:33N 33°41' W 118°09'0 0.0
2014-Nov-23 15:27N 33°41' W 118°09'0 0.0
2014-Nov-23 14:33N 33°41' W 118°09'0 0.2
2014-Nov-23 13:23N 33°41' W 118°09'0 0.1
2014-Nov-23 12:33N 33°41' W 118°09'10 5.2
2014-Nov-23 10:33N 33°31' W 118°08'1111.5
2014-Nov-23 09:33N 33°20' W 118°03'1111.4
2014-Nov-23 08:34N 33°09' W 117°59'1212.0
2014-Nov-23 07:33N 32°58' W 117°55'1514.7
2014-Nov-23 06:33N 32°44' W 117°49'1514.9
2014-Nov-23 05:33N 32°30' W 117°43'1514.8
2014-Nov-23 04:33N 32°16' W 117°38'2914.3
2014-Nov-23 02:32N 31°48' W 117°28'1514.2
2014-Nov-23 01:30N 31°34' W 117°22'1814.2
2014-Nov-23 00:12N 31°17' W 117°15'1114.7
2014-Nov-22 23:29N 31°07' W 117°11'1414.6
2014-Nov-22 22:32N 30°54' W 117°06'  
Track history (hours):
 
Tides and Currents Weather Stations Pressure Air Temp Water Temp Dewpoint Dewpoint Depression Visibility Wind Speed Wind Dir Waves Ship Positions

Ever Develop

Last reported at 2014-Nov-26 12:33 UTC. Time now 2014-Nov-26 12:48 UTC.
Position N 36°20' W 122°54'.

Type: Ship (hazmat cat D). MMSI: 356391000.

Date/timePositionNaut miles runAvg speedWind from/ knotsBaromVisibWave heightAir tempDewpointWater temp
2014-Nov-26 12:33N 36°20' W 122°54'0 0.4
2014-Nov-26 11:33N 36°20' W 122°55'0 0.3
2014-Nov-26 10:33N 36°20' W 122°55'0 0.0
2014-Nov-26 09:33N 36°20' W 122°55'0 0.3
2014-Nov-26 08:33N 36°20' W 122°55'0 0.5
2014-Nov-26 07:33N 36°20' W 122°55'1 0.7
2014-Nov-26 06:28N 36°21' W 122°55'1 0.9
2014-Nov-26 05:33N 36°22' W 122°55'1 0.6
2014-Nov-26 04:33N 36°22' W 122°56'7 6.9
2014-Nov-26 03:33N 36°19' W 122°48'1413.5
2014-Nov-26 02:33N 36°09' W 122°37'1413.6
2014-Nov-26 01:33N 35°60' W 122°25'1313.4
2014-Nov-26 00:33N 35°50' W 122°13'1313.1
2014-Nov-25 23:33N 35°39' W 122°05'1413.6
2014-Nov-25 22:33N 35°27' W 121°57'1413.6
2014-Nov-25 21:33N 35°15' W 121°50'1413.7
2014-Nov-25 20:33N 35°02' W 121°42'1413.7
2014-Nov-25 19:33N 34°50' W 121°34'1413.6
2014-Nov-25 18:33N 34°38' W 121°26'1413.7
2014-Nov-25 17:33N 34°26' W 121°19'1413.6
2014-Nov-25 16:30N 34°13' W 121°11'1313.8
2014-Nov-25 15:33N 34°02' W 121°04'1413.8
2014-Nov-25 14:33N 33°49' W 120°56'3113.5
2014-Nov-25 12:17N 33°29' W 120°28'1014.1
2014-Nov-25 11:34N 33°31' W 120°16'1514.4
2014-Nov-25 10:33N 33°34' W 119°59'1514.4
2014-Nov-25 09:30N 33°36' W 119°42'2814.4
2014-Nov-25 07:32N 33°42' W 119°08'1111.7
2014-Nov-25 06:33N 33°41' W 118°54'9 9.2
2014-Nov-25 05:33N 33°41' W 118°43'9 9.5
2014-Nov-25 04:33N 33°39' W 118°32'1211.7
2014-Nov-25 03:33N 33°38' W 118°18'7 6.7
2014-Nov-25 02:33N 33°45' W 118°16'0 0.0
2014-Nov-25 00:22N 33°45' W 118°16'0 0.0
2014-Nov-24 23:28N 33°45' W 118°16'0 0.0
2014-Nov-24 22:31N 33°45' W 118°16'0 0.0
2014-Nov-24 21:31N 33°45' W 118°16'0 0.0
2014-Nov-24 20:28N 33°45' W 118°16'0 0.0
2014-Nov-24 19:31N 33°45' W 118°16'0 0.0
2014-Nov-24 18:31N 33°45' W 118°16'0 0.0
2014-Nov-24 17:31N 33°45' W 118°16'0 0.0
2014-Nov-24 16:31N 33°45' W 118°16'0 0.0
2014-Nov-24 15:28N 33°45' W 118°16'0 0.0
2014-Nov-24 14:31N 33°45' W 118°16'0 0.0
2014-Nov-24 13:33N 33°45' W 118°16'4 3.9
2014-Nov-24 12:33N 33°41' W 118°14'3 3.4
2014-Nov-24 11:33N 33°39' W 118°11'3 3.0
2014-Nov-24 10:30N 33°41' W 118°09'0 0.2
2014-Nov-24 09:33N 33°41' W 118°09'0 0.1
2014-Nov-24 08:33N 33°41' W 118°09'0 0.1
2014-Nov-24 07:33N 33°41' W 118°09'0 0.1
2014-Nov-24 06:33N 33°41' W 118°09'0 0.0
2014-Nov-24 05:21N 33°41' W 118°09'0 0.1
2014-Nov-24 04:33N 33°41' W 118°09'0 0.0
2014-Nov-24 03:33N 33°41' W 118°09'0 0.1
2014-Nov-24 02:27N 33°41' W 118°09'0 0.0
2014-Nov-24 01:33N 33°41' W 118°09'0 0.0
2014-Nov-24 00:33N 33°41' W 118°09'0 0.0
2014-Nov-23 23:33N 33°41' W 118°09'0 0.0
2014-Nov-23 22:30N 33°41' W 118°09'0 0.0
2014-Nov-23 21:33N 33°41' W 118°09'0 0.1
2014-Nov-23 20:33N 33°41' W 118°09'0 0.0
2014-Nov-23 19:33N 33°41' W 118°09'0 0.0
2014-Nov-23 18:33N 33°41' W 118°09'0 0.0
2014-Nov-23 17:33N 33°41' W 118°09'0 0.0
2014-Nov-23 16:33N 33°41' W 118°09'0 0.0
2014-Nov-23 15:27N 33°41' W 118°09'0 0.0
2014-Nov-23 14:33N 33°41' W 118°09'0 0.2
2014-Nov-23 13:23N 33°41' W 118°09'0 0.1
2014-Nov-23 12:33N 33°41' W 118°09'10 5.2
2014-Nov-23 10:33N 33°31' W 118°08'1111.5
2014-Nov-23 09:33N 33°20' W 118°03'1111.4
2014-Nov-23 08:34N 33°09' W 117°59'1212.0
2014-Nov-23 07:33N 32°58' W 117°55'1514.7
2014-Nov-23 06:33N 32°44' W 117°49'1514.9
2014-Nov-23 05:33N 32°30' W 117°43'1514.8
2014-Nov-23 04:33N 32°16' W 117°38'2914.3
2014-Nov-23 02:32N 31°48' W 117°28'1514.2
2014-Nov-23 01:30N 31°34' W 117°22'1814.2
2014-Nov-23 00:12N 31°17' W 117°15'1114.7
2014-Nov-22 23:29N 31°07' W 117°11'1414.6
2014-Nov-22 22:32N 30°54' W 117°06'  

Dump ship's entire track history